Hlavní strana
METAR-TAF:

METAR-TAF

Letiště :

Stockholm-Arlanda, Švédsko

zeměpisná šířka: 59-39N, zeměpisná délka: 017-57E, výška: 38 m

Aktuální stav počasí

Zpráva byla vytvořena před 39 minutami, v 09:50 UTC
Západní vítr 6 kt
Teplota -5°C
Vlhkost vzduchu 86%
Tlak 1012 hPa
Viditelnost 10 km a více
Žádná oblačnost pod 1500 m, nevyskytují se cumulonimby.

METAR: ESSA 100950Z 26006KT CAVOK M05/M07 Q1012 R01L/71//60 R08/650160 R01R/610155 NOSIG

Čas: 11:29 (10:29 UTC)

Předpověď počasí

Zpráva byla vytvořena před 4 hodinami a 59 minutami, v 05:30 UTC
Předpověď platná od 10 v 06 UTC do 11 v 06 UTC
Západoseverozápadní vítr 6 kt
Viditelnost 10 km a více
Žádná oblačnost pod 1500 m, nevyskytují se cumulonimby.
Změna
od 10 v 20 UTC do 10 v 22 UTC
Jižní vítr 12 kt
Změna
od 11 v 00 UTC do 11 v 02 UTC
Jižní vítr 18 kt s nárazy do 28 kt
Pravděpodobnost 40%
od 11 v 04 UTC do 11 v 06 UTC
déšť

TAF: ESSA 100530Z 1006/1106 29006KT CAVOK BECMG 1020/1022 18012KT BECMG 1100/1102 18018G28KT PROB40 1104/1106 RA

Stav a předpovědi počasí z více než 4 000 letišť (zprávy METAR a TAF).

Červené a žluté tečky na mapě představují dostupné meteorologické stanice.

Když kurzor umístíte na tečku, zobrazí se název stanice.

Pak kliknutím zobrazíte stav a předpověď počasí.

Chcete-li změnit mapu, kliknutím na zelené tlačítko se znaménkem +mapu přiblížíte, kliknutím na zelené tlačítko se znaménkem – mapu oddálíte a kliknutím na zelené šipky přejdete na sousední mapy.


METAR-TAF: